createdAt,value
2019-02-22T00:01:22.215Z,48.40
2019-02-22T00:03:49.712Z,43.33
2019-02-22T00:06:17.020Z,43.43
2019-02-22T00:08:44.424Z,41.10
2019-02-22T00:11:11.758Z,38.93
2019-02-22T00:13:39.085Z,38.00
2019-02-22T00:16:06.457Z,39.57
2019-02-22T00:18:33.859Z,36.10
2019-02-22T00:21:01.253Z,36.43
2019-02-22T00:23:28.569Z,34.97
2019-02-22T00:25:56.015Z,34.10
2019-02-22T00:28:23.441Z,32.77
2019-02-22T00:30:50.814Z,32.27
2019-02-22T00:33:18.123Z,34.23
2019-02-22T00:35:45.598Z,34.40
2019-02-22T00:38:12.904Z,35.33
2019-02-22T00:40:40.264Z,34.07
2019-02-22T00:43:07.609Z,36.43
2019-02-22T00:45:34.964Z,38.20
2019-02-22T00:48:02.363Z,33.63
2019-02-22T00:50:29.740Z,36.57
2019-02-22T00:52:57.069Z,34.90
2019-02-22T00:55:24.448Z,31.67
2019-02-22T00:57:51.815Z,35.03
2019-02-22T01:00:19.223Z,34.23
2019-02-22T01:02:46.975Z,35.53
2019-02-22T01:05:14.375Z,34.83
2019-02-22T01:07:41.821Z,34.90
2019-02-22T01:10:09.251Z,36.77
2019-02-22T01:12:36.881Z,38.40
2019-02-22T01:15:04.436Z,35.47
2019-02-22T01:17:31.772Z,40.10
2019-02-22T01:19:59.198Z,38.73
2019-02-22T01:22:26.571Z,40.07
2019-02-22T01:24:54.351Z,39.90
2019-02-22T01:27:21.796Z,43.30
2019-02-22T01:29:49.151Z,35.97
2019-02-22T01:32:16.571Z,42.67
2019-02-22T01:34:43.926Z,38.40
2019-02-22T01:37:11.356Z,37.70
2019-02-22T01:39:38.726Z,36.93
2019-02-22T01:42:06.199Z,37.43
2019-02-22T01:44:33.658Z,39.40
2019-02-22T01:47:01.090Z,40.13
2019-02-22T01:49:28.451Z,37.50
2019-02-22T01:51:55.932Z,36.13
2019-02-22T01:54:23.475Z,39.47
2019-02-22T01:56:51.030Z,37.70
2019-02-22T01:59:18.476Z,33.67
2019-02-22T02:01:45.881Z,37.53
2019-02-22T02:04:13.272Z,37.83
2019-02-22T02:06:40.702Z,38.03
2019-02-22T02:09:08.106Z,40.43
2019-02-22T02:11:35.602Z,32.87
2019-02-22T02:14:03.036Z,32.33
2019-02-22T02:16:30.514Z,33.17
2019-02-22T02:18:57.957Z,35.13
2019-02-22T02:21:25.421Z,33.27
2019-02-22T02:23:52.950Z,33.77
2019-02-22T02:26:20.387Z,31.97
2019-02-22T02:28:47.905Z,29.80
2019-02-22T02:31:15.354Z,32.53
2019-02-22T02:33:42.748Z,33.07
2019-02-22T02:36:10.206Z,35.23
2019-02-22T02:38:37.715Z,31.90
2019-02-22T02:41:10.838Z,28.83
2019-02-22T02:43:34.536Z,30.37
2019-02-22T02:46:01.942Z,31.43
2019-02-22T02:48:29.420Z,30.80
2019-02-22T02:50:56.818Z,28.93
2019-02-22T02:53:24.272Z,31.00
2019-02-22T02:55:51.700Z,29.20
2019-02-22T02:58:19.097Z,28.47
2019-02-22T03:00:46.504Z,26.77
2019-02-22T03:03:14.091Z,31.43
2019-02-22T03:05:53.635Z,28.27
2019-02-22T03:08:22.423Z,29.43
2019-02-22T03:10:49.923Z,29.40
2019-02-22T03:13:17.429Z,29.67
2019-02-22T03:15:45.216Z,30.27
2019-02-22T03:18:12.673Z,34.97
2019-02-22T03:20:40.072Z,33.00
2019-02-22T03:23:07.531Z,29.70
2019-02-22T03:25:34.979Z,36.20
2019-02-22T03:28:02.861Z,36.67
2019-02-22T03:30:30.296Z,36.83
2019-02-22T03:32:57.702Z,35.27
2019-02-22T03:35:25.186Z,35.40
2019-02-22T03:37:52.719Z,35.23
2019-02-22T03:40:20.112Z,39.83
2019-02-22T03:42:47.583Z,36.33
2019-02-22T03:45:14.942Z,35.40
2019-02-22T03:47:42.384Z,36.87
2019-02-22T03:50:09.909Z,38.53
2019-02-22T03:52:46.586Z,37.67
2019-02-22T03:55:13.983Z,37.43
2019-02-22T03:57:41.378Z,39.00
2019-02-22T04:00:09.267Z,40.97
2019-02-22T04:02:36.697Z,45.67
2019-02-22T04:05:04.798Z,40.20
2019-02-22T04:07:32.216Z,43.27
2019-02-22T04:09:59.645Z,40.93
2019-02-22T04:12:27.106Z,42.37
2019-02-22T04:14:54.567Z,42.03
2019-02-22T04:17:21.941Z,43.27
2019-02-22T04:19:49.388Z,43.53
2019-02-22T04:22:16.801Z,41.70
2019-02-22T04:24:44.341Z,41.57
2019-02-22T04:27:11.748Z,42.63
2019-02-22T04:29:39.223Z,37.30
2019-02-22T04:32:06.628Z,43.13
2019-02-22T04:34:34.251Z,36.17
2019-02-22T04:37:01.625Z,41.40
2019-02-22T04:39:29.046Z,38.13
2019-02-22T04:41:58.281Z,36.63
2019-02-22T04:44:25.756Z,42.20
2019-02-22T04:46:53.207Z,39.27
2019-02-22T04:49:20.646Z,39.40
2019-02-22T04:51:48.018Z,39.20
2019-02-22T04:54:15.456Z,37.37
2019-02-22T04:56:43.273Z,38.23
2019-02-22T04:59:10.741Z,36.47
2019-02-22T05:01:38.146Z,37.63
2019-02-22T05:04:07.001Z,40.63
2019-02-22T05:06:34.393Z,38.63
2019-02-22T05:09:01.911Z,38.67
2019-02-22T05:11:29.308Z,39.00
2019-02-22T05:13:56.762Z,39.60
2019-02-22T05:16:24.177Z,42.33
2019-02-22T05:18:51.607Z,41.23
2019-02-22T05:21:19.496Z,41.07
2019-02-22T05:23:46.969Z,42.67
2019-02-22T05:26:14.355Z,40.33
2019-02-22T05:28:41.786Z,40.87
2019-02-22T05:31:09.176Z,41.70
2019-02-22T05:33:36.759Z,39.90
2019-02-22T05:36:04.267Z,41.33
2019-02-22T05:38:31.681Z,40.00
2019-02-22T05:40:59.089Z,42.40
2019-02-22T05:43:26.458Z,47.00
2019-02-22T05:45:53.877Z,45.00
2019-02-22T05:48:21.243Z,39.67
2019-02-22T05:50:48.669Z,43.73
2019-02-22T05:53:16.046Z,40.90
2019-02-22T05:55:44.420Z,42.07
2019-02-22T05:58:11.946Z,42.93
2019-02-22T06:00:39.383Z,41.47
2019-02-22T06:03:06.838Z,41.57
2019-02-22T06:05:34.301Z,44.30
2019-02-22T06:08:01.696Z,42.10
2019-02-22T06:10:29.115Z,42.23
2019-02-22T06:12:57.136Z,39.77
2019-02-22T06:15:24.656Z,42.37
2019-02-22T06:17:52.054Z,40.70
2019-02-22T06:20:19.477Z,43.80
2019-02-22T06:22:46.856Z,41.13
2019-02-22T06:25:14.364Z,46.00
2019-02-22T06:27:41.747Z,45.37
2019-02-22T06:30:09.347Z,43.83
2019-02-22T06:32:36.721Z,41.63
2019-02-22T06:35:04.412Z,42.87
2019-02-22T06:37:31.811Z,41.87
2019-02-22T06:39:59.217Z,44.43
2019-02-22T06:42:26.581Z,41.10
2019-02-22T06:44:54.341Z,41.77
2019-02-22T06:47:22.882Z,47.40
2019-02-22T06:49:50.541Z,43.93
2019-02-22T06:52:17.987Z,41.30
2019-02-22T06:54:45.388Z,42.57
2019-02-22T06:57:12.805Z,47.30
2019-02-22T06:59:40.202Z,41.50
2019-02-22T07:02:07.591Z,36.13
2019-02-22T07:04:35.011Z,44.83
2019-02-22T07:07:02.586Z,38.13
2019-02-22T07:09:29.958Z,42.87
2019-02-22T07:12:02.626Z,39.57
2019-02-22T07:14:30.002Z,39.97
2019-02-22T07:16:57.420Z,43.47
2019-02-22T07:19:24.832Z,41.57
2019-02-22T07:21:53.185Z,38.20
2019-02-22T07:24:20.801Z,43.30
2019-02-22T07:26:48.224Z,40.73
2019-02-22T07:29:15.576Z,42.10
2019-02-22T07:31:43.001Z,42.80
2019-02-22T07:34:10.374Z,44.93
2019-02-22T07:36:37.775Z,40.10
2019-02-22T07:39:05.983Z,44.07
2019-02-22T07:41:33.436Z,40.53
2019-02-22T07:44:00.838Z,38.33
2019-02-22T07:46:28.253Z,41.43
2019-02-22T07:48:55.776Z,40.23
2019-02-22T07:51:23.261Z,44.03
2019-02-22T07:53:50.646Z,40.03
2019-02-22T07:56:19.179Z,39.90
2019-02-22T07:58:46.844Z,39.77
2019-02-22T08:01:14.291Z,39.10
2019-02-22T08:03:41.703Z,40.20
2019-02-22T08:06:09.122Z,39.77
2019-02-22T08:08:36.476Z,40.50
2019-02-22T08:11:03.968Z,39.77
2019-02-22T08:13:31.370Z,41.50
2019-02-22T08:15:58.857Z,42.13
2019-02-22T08:18:26.247Z,40.00
2019-02-22T08:20:53.691Z,38.93
2019-02-22T08:23:21.066Z,40.03
2019-02-22T08:25:48.508Z,43.33
2019-02-22T08:28:15.941Z,41.77
2019-02-22T08:30:43.323Z,46.77
2019-02-22T08:33:10.776Z,42.80
2019-02-22T08:35:38.127Z,44.63
2019-02-22T08:38:05.599Z,40.73
2019-02-22T08:40:32.967Z,48.83
2019-02-22T08:43:00.371Z,52.13
2019-02-22T08:45:27.778Z,46.10
2019-02-22T08:47:55.542Z,51.10
2019-02-22T08:50:22.916Z,50.73
2019-02-22T08:52:50.377Z,49.13
2019-02-22T08:55:17.778Z,57.47
2019-02-22T08:57:45.229Z,52.70
2019-02-22T09:00:14.086Z,56.33
2019-02-22T09:02:41.511Z,54.73
2019-02-22T09:05:08.874Z,69.27
2019-02-22T09:07:36.311Z,62.67
2019-02-22T09:10:04.481Z,62.50
2019-02-22T09:12:31.928Z,73.10
2019-02-22T09:14:59.308Z,84.97
2019-02-22T09:17:26.708Z,78.83
2019-02-22T09:19:54.048Z,77.13
2019-02-22T09:22:23.098Z,72.77
2019-02-22T09:24:50.824Z,66.57
2019-02-22T09:27:18.258Z,64.80
2019-02-22T09:29:45.610Z,71.07
2019-02-22T09:32:13.022Z,71.57
2019-02-22T09:34:40.819Z,75.57
2019-02-22T09:37:08.218Z,75.87
2019-02-22T09:39:35.582Z,68.53
2019-02-22T09:42:03.003Z,69.87
2019-02-22T09:44:30.382Z,64.03
2019-02-22T09:46:58.840Z,58.97
2019-02-22T09:49:26.238Z,66.43
2019-02-22T09:51:53.621Z,63.17
2019-02-22T09:54:21.037Z,63.47
2019-02-22T09:56:48.410Z,61.23
2019-02-22T09:59:15.929Z,67.20
2019-02-22T10:01:43.370Z,68.90
2019-02-22T10:04:10.935Z,67.60
2019-02-22T10:06:38.287Z,66.20
2019-02-22T10:09:06.158Z,67.47
2019-02-22T10:11:33.539Z,62.97
2019-02-22T10:14:06.595Z,67.03
2019-02-22T10:16:30.203Z,67.60
2019-02-22T10:18:57.882Z,65.63
2019-02-22T10:21:25.238Z,62.67
2019-02-22T10:23:52.803Z,60.13
2019-02-22T10:26:21.485Z,65.87
2019-02-22T10:28:49.100Z,63.30
2019-02-22T10:31:16.819Z,67.47
2019-02-22T10:33:44.227Z,73.40
2019-02-22T10:36:11.758Z,74.43
2019-02-22T10:38:39.148Z,72.30
2019-02-22T10:41:06.489Z,74.67
2019-02-22T10:43:33.919Z,78.30
2019-02-22T10:46:01.296Z,72.37
2019-02-22T10:48:28.741Z,83.03
2019-02-22T10:50:56.130Z,89.13
2019-02-22T10:53:23.713Z,67.23
2019-02-22T10:55:51.083Z,64.43
2019-02-22T10:58:19.181Z,65.40
2019-02-22T11:00:46.558Z,58.50
2019-02-22T11:03:13.984Z,58.03
2019-02-22T11:05:41.730Z,63.97
2019-02-22T11:08:09.178Z,59.13
2019-02-22T11:10:36.565Z,67.93
2019-02-22T11:13:03.943Z,54.77
2019-02-22T11:15:31.384Z,56.60
2019-02-22T11:17:59.094Z,58.67
2019-02-22T11:20:26.533Z,58.87
2019-02-22T11:22:53.913Z,61.43
2019-02-22T11:25:21.389Z,56.47
2019-02-22T11:27:48.773Z,54.17
2019-02-22T11:30:16.327Z,50.37
2019-02-22T11:32:43.735Z,57.50
2019-02-22T11:35:11.188Z,46.20
2019-02-22T11:37:38.620Z,48.87
2019-02-22T11:40:06.024Z,49.60
2019-02-22T11:42:33.408Z,50.90
2019-02-22T11:45:00.843Z,47.90
2019-02-22T11:47:28.316Z,45.23
2019-02-22T11:49:55.764Z,46.57
2019-02-22T11:52:23.148Z,44.17
2019-02-22T11:54:50.569Z,42.43
2019-02-22T11:57:19.584Z,43.23
2019-02-22T11:59:47.238Z,40.23
2019-02-22T12:02:14.646Z,46.13
2019-02-22T12:04:42.078Z,41.30
2019-02-22T12:07:10.563Z,38.90
2019-02-22T12:09:37.968Z,44.30
2019-02-22T12:12:05.365Z,37.80
2019-02-22T12:14:32.798Z,35.70
2019-02-22T12:17:00.602Z,34.70
2019-02-22T12:19:28.173Z,40.43
2019-02-22T12:21:55.573Z,33.43
2019-02-22T12:24:23.049Z,39.87
2019-02-22T12:26:50.459Z,32.23
2019-02-22T12:29:17.858Z,39.10
2019-02-22T12:31:45.290Z,41.07
2019-02-22T12:34:13.793Z,36.97
2019-02-22T12:36:41.328Z,39.03
2019-02-22T12:39:08.918Z,35.37
2019-02-22T12:41:36.346Z,39.37
2019-02-22T12:44:03.967Z,40.80
2019-02-22T12:46:31.443Z,38.93
2019-02-22T12:48:58.859Z,35.10
2019-02-22T12:51:26.309Z,32.33
2019-02-22T12:53:53.665Z,39.40
2019-02-22T12:56:27.513Z,32.77
2019-02-22T12:58:50.790Z,30.80
2019-02-22T13:01:18.308Z,37.53
2019-02-22T13:03:46.038Z,30.13
2019-02-22T13:06:13.628Z,36.30
2019-02-22T13:08:41.000Z,29.37
2019-02-22T13:11:09.623Z,28.70
2019-02-22T13:13:37.149Z,26.37
2019-02-22T13:16:12.457Z,20.80
2019-02-22T13:18:39.885Z,17.73
2019-02-22T13:21:07.400Z,21.97
2019-02-22T13:23:34.879Z,19.90
2019-02-22T13:26:02.562Z,23.40
2019-02-22T13:28:30.135Z,17.93
2019-02-22T13:30:57.660Z,19.80
2019-02-22T13:33:25.125Z,19.50
2019-02-22T13:35:52.685Z,17.00
2019-02-22T13:38:20.345Z,16.93
2019-02-22T13:40:49.310Z,18.63
2019-02-22T13:43:17.075Z,16.57
2019-02-22T13:45:44.684Z,21.20
2019-02-22T13:48:12.245Z,19.63
2019-02-22T13:50:39.658Z,19.37
2019-02-22T13:53:08.285Z,23.93
2019-02-22T13:55:35.693Z,16.37
2019-02-22T13:58:05.520Z,17.47
2019-02-22T14:00:33.157Z,19.60
2019-02-22T14:03:00.746Z,16.67
2019-02-22T14:05:28.408Z,17.50
2019-02-22T14:07:56.160Z,17.17
2019-02-22T14:10:24.181Z,20.33
2019-02-22T14:12:51.788Z,21.50
2019-02-22T14:15:19.446Z,18.30
2019-02-22T14:17:47.027Z,15.67
2019-02-22T14:20:14.650Z,16.47
2019-02-22T14:22:42.266Z,16.60
2019-02-22T14:25:10.186Z,14.93
2019-02-22T14:27:37.928Z,16.60
2019-02-22T14:30:06.776Z,11.67
2019-02-22T14:32:34.370Z,10.50
2019-02-22T14:35:02.149Z,10.20
2019-02-22T14:37:31.818Z,14.07
2019-02-22T14:40:03.424Z,11.87
2019-02-22T14:42:29.492Z,12.83
2019-02-22T14:44:57.120Z,11.60
2019-02-22T14:47:24.791Z,15.00
2019-02-22T14:49:55.055Z,9.90
2019-02-22T14:52:22.924Z,10.43
2019-02-22T14:54:50.829Z,11.37
2019-02-22T14:57:18.860Z,11.17
2019-02-22T14:59:47.776Z,10.93
2019-02-22T15:02:15.616Z,10.77
2019-02-22T15:04:43.407Z,9.53
2019-02-22T15:07:11.218Z,10.97
2019-02-22T15:09:39.105Z,10.10
2019-02-22T15:12:07.551Z,8.53
2019-02-22T15:14:35.355Z,9.47
2019-02-22T15:17:22.659Z,10.87
2019-02-22T15:19:50.696Z,8.87
2019-02-22T15:22:21.535Z,10.97
2019-02-22T15:24:49.440Z,9.93
2019-02-22T15:27:17.600Z,13.57
2019-02-22T15:29:45.270Z,10.37
2019-02-22T15:32:13.316Z,13.57
2019-02-22T15:34:41.495Z,10.60
2019-02-22T15:37:09.445Z,11.30
2019-02-22T15:39:37.093Z,11.10
2019-02-22T15:42:05.259Z,9.43
2019-02-22T15:44:33.218Z,12.13
2019-02-22T15:47:11.385Z,12.97
2019-02-22T15:49:31.486Z,12.57
2019-02-22T15:51:59.111Z,11.00
2019-02-22T15:54:26.901Z,11.00
2019-02-22T15:56:54.421Z,10.30
2019-02-22T15:59:22.207Z,13.83
2019-02-22T16:01:55.167Z,11.17
2019-02-22T16:04:34.899Z,10.40
2019-02-22T16:07:02.512Z,11.17
2019-02-22T16:09:30.405Z,15.23
2019-02-22T16:11:58.135Z,15.37
2019-02-22T16:14:25.986Z,14.87
2019-02-22T16:16:53.762Z,13.87
2019-02-22T16:19:21.796Z,13.37
2019-02-22T16:21:49.560Z,13.63
2019-02-22T16:24:17.401Z,14.43
2019-02-22T16:26:45.206Z,16.57
2019-02-22T16:29:12.911Z,15.17
2019-02-22T16:31:40.587Z,14.37
2019-02-22T16:34:08.665Z,14.80
2019-02-22T16:36:36.452Z,17.63
2019-02-22T16:39:07.041Z,16.03
2019-02-22T16:41:34.901Z,16.40
2019-02-22T16:44:02.636Z,14.63
2019-02-22T16:46:35.195Z,15.60
2019-02-22T16:49:01.974Z,15.27
2019-02-22T16:51:29.828Z,14.80
2019-02-22T16:53:59.200Z,14.63
2019-02-22T16:56:26.896Z,14.60
2019-02-22T16:58:54.720Z,15.73
2019-02-22T17:01:22.390Z,14.43
2019-02-22T17:03:50.140Z,15.93
2019-02-22T17:06:17.990Z,17.10
2019-02-22T17:08:45.746Z,16.17
2019-02-22T17:11:13.672Z,17.07
2019-02-22T17:13:41.485Z,16.07
2019-02-22T17:16:09.650Z,18.73
2019-02-22T17:18:37.810Z,16.47
2019-02-22T17:21:05.744Z,15.97
2019-02-22T17:23:33.500Z,16.83
2019-02-22T17:26:01.666Z,16.20
2019-02-22T17:28:29.690Z,19.97
2019-02-22T17:30:57.666Z,17.43
2019-02-22T17:33:25.482Z,17.83
2019-02-22T17:35:53.305Z,18.10
2019-02-22T17:38:20.986Z,18.90
2019-02-22T17:40:48.882Z,20.13
2019-02-22T17:43:16.700Z,19.00
2019-02-22T17:45:45.125Z,19.50
2019-02-22T17:48:12.810Z,18.83
2019-02-22T17:50:40.670Z,19.93
2019-02-22T17:53:09.106Z,20.33
2019-02-22T17:55:36.925Z,18.27
2019-02-22T17:58:04.798Z,18.23
2019-02-22T18:00:32.533Z,22.73
2019-02-22T18:03:00.290Z,21.93
2019-02-22T18:05:28.045Z,19.67
2019-02-22T18:07:55.859Z,19.77
2019-02-22T18:10:23.605Z,20.90
2019-02-22T18:12:51.292Z,19.53
2019-02-22T18:15:19.525Z,21.30
2019-02-22T18:17:47.302Z,21.10
2019-02-22T18:20:15.242Z,21.77
2019-02-22T18:22:43.188Z,22.63
2019-02-22T18:25:11.286Z,19.67
2019-02-22T18:27:39.080Z,23.73
2019-02-22T18:30:08.395Z,21.60
2019-02-22T18:32:36.190Z,26.73
2019-02-22T18:35:04.416Z,22.40
2019-02-22T18:37:33.525Z,20.90
2019-02-22T18:40:01.447Z,21.20
2019-02-22T18:42:29.286Z,22.07
2019-02-22T18:44:57.168Z,22.20
2019-02-22T18:47:24.916Z,25.63
2019-02-22T18:49:52.737Z,24.43
2019-02-22T18:52:20.706Z,23.97
2019-02-22T18:54:48.506Z,27.27
2019-02-22T18:57:16.370Z,24.20
2019-02-22T18:59:44.025Z,23.90
2019-02-22T19:02:14.246Z,24.37
2019-02-22T19:04:42.230Z,24.90
2019-02-22T19:07:10.211Z,24.33
2019-02-22T19:09:38.109Z,29.33
2019-02-22T19:12:06.125Z,25.87
2019-02-22T19:14:33.922Z,23.47
2019-02-22T19:17:03.606Z,27.07
2019-02-22T19:19:31.608Z,22.40
2019-02-22T19:21:59.413Z,23.73
2019-02-22T19:24:33.283Z,23.47
2019-02-22T19:27:01.196Z,22.80
2019-02-22T19:29:30.445Z,24.23
2019-02-22T19:31:58.315Z,24.73
2019-02-22T19:34:26.145Z,27.77
2019-02-22T19:36:54.211Z,22.70
2019-02-22T19:39:22.140Z,22.13
2019-02-22T19:41:50.196Z,22.33
2019-02-22T19:44:18.195Z,21.80
2019-02-22T19:46:46.135Z,22.50
2019-02-22T19:49:14.065Z,22.90
2019-02-22T19:51:42.145Z,23.90
2019-02-22T19:54:10.105Z,21.63
2019-02-22T19:56:37.966Z,23.17
2019-02-22T19:59:08.564Z,21.77
2019-02-22T20:01:36.440Z,20.97
2019-02-22T20:04:06.925Z,21.37
2019-02-22T20:06:35.030Z,20.93
2019-02-22T20:09:05.605Z,20.40
2019-02-22T20:11:33.486Z,21.60
2019-02-22T20:14:01.451Z,22.07
2019-02-22T20:16:29.371Z,20.27
2019-02-22T20:18:57.150Z,25.03
2019-02-22T20:21:25.455Z,21.63
2019-02-22T20:23:53.805Z,21.73
2019-02-22T20:26:22.886Z,24.20
2019-02-22T20:28:50.866Z,22.23
2019-02-22T20:31:20.553Z,21.87
2019-02-22T20:33:48.785Z,24.13
2019-02-22T20:36:27.730Z,23.07
2019-02-22T20:38:48.146Z,22.13
2019-02-22T20:41:15.924Z,22.93
2019-02-22T20:43:43.925Z,22.83
2019-02-22T20:46:12.196Z,22.27
2019-02-22T20:48:40.545Z,24.97
2019-02-22T20:51:08.405Z,20.83
2019-02-22T20:53:36.280Z,23.03
2019-02-22T20:56:04.245Z,23.23
2019-02-22T20:58:32.029Z,25.40
2019-02-22T21:00:59.740Z,24.27
2019-02-22T21:03:27.525Z,23.53
2019-02-22T21:05:55.305Z,23.27
2019-02-22T21:08:24.772Z,22.93
2019-02-22T21:10:52.796Z,23.13
2019-02-22T21:13:20.841Z,21.87
2019-02-22T21:15:48.721Z,24.77
2019-02-22T21:18:16.789Z,23.27
2019-02-22T21:20:44.715Z,20.53
2019-02-22T21:23:12.671Z,22.60
2019-02-22T21:25:40.639Z,21.47
2019-02-22T21:28:08.438Z,22.27
2019-02-22T21:30:36.115Z,22.63
2019-02-22T21:33:04.000Z,22.63
2019-02-22T21:35:31.856Z,25.63
2019-02-22T21:37:59.721Z,22.27
2019-02-22T21:40:30.631Z,22.40
2019-02-22T21:42:58.385Z,24.43
2019-02-22T21:45:26.245Z,22.47
2019-02-22T21:47:55.766Z,23.83
2019-02-22T21:50:23.725Z,23.27
2019-02-22T21:52:51.459Z,23.90
2019-02-22T21:55:19.256Z,24.20
2019-02-22T21:57:47.155Z,25.30
2019-02-22T22:00:16.750Z,24.43
2019-02-22T22:02:44.317Z,26.87
2019-02-22T22:05:11.890Z,23.93
2019-02-22T22:07:39.519Z,23.23
2019-02-22T22:10:07.270Z,22.70
2019-02-22T22:12:34.676Z,24.53
2019-02-22T22:15:02.130Z,22.53
2019-02-22T22:17:29.682Z,20.70
2019-02-22T22:19:57.115Z,21.70
2019-02-22T22:22:24.640Z,28.00
2019-02-22T22:24:52.391Z,22.70
2019-02-22T22:27:19.825Z,24.87
2019-02-22T22:29:47.236Z,24.80
2019-02-22T22:32:14.986Z,23.70
2019-02-22T22:34:42.655Z,26.17
2019-02-22T22:37:14.688Z,21.63
2019-02-22T22:39:42.248Z,21.60
2019-02-22T22:42:09.631Z,25.33
2019-02-22T22:44:37.360Z,22.87
2019-02-22T22:47:04.727Z,23.97
2019-02-22T22:49:32.136Z,20.30
2019-02-22T22:51:59.473Z,22.17
2019-02-22T22:54:26.870Z,23.77
2019-02-22T22:56:54.245Z,23.57
2019-02-22T22:59:21.805Z,19.43
2019-02-22T23:01:49.229Z,24.20
2019-02-22T23:04:16.586Z,24.20
2019-02-22T23:06:44.035Z,23.03
2019-02-22T23:09:19.891Z,23.23
2019-02-22T23:11:47.325Z,22.27
2019-02-22T23:14:14.715Z,21.77
2019-02-22T23:16:42.135Z,22.67
2019-02-22T23:19:09.550Z,24.50
2019-02-22T23:21:36.990Z,23.90
2019-02-22T23:24:04.428Z,23.67
2019-02-22T23:26:31.876Z,22.83
2019-02-22T23:29:01.764Z,22.03
2019-02-22T23:31:28.940Z,21.93
2019-02-22T23:33:56.297Z,23.97
2019-02-22T23:36:24.189Z,22.97
2019-02-22T23:38:51.547Z,23.83
2019-02-22T23:41:18.956Z,20.40
2019-02-22T23:43:46.320Z,21.70
2019-02-22T23:46:13.735Z,20.60
2019-02-22T23:48:41.110Z,24.07
2019-02-22T23:51:08.530Z,21.07
2019-02-22T23:53:35.931Z,23.13
2019-02-22T23:56:03.320Z,23.53
2019-02-22T23:58:30.755Z,22.17
